sensor_id;sensor_type;location;lat;lon;timestamp;temperature;humidity
69382;DHT22;56560;50.692;12.844;2022-10-16T00:01:33;14.60;87.50
69382;DHT22;56560;50.692;12.844;2022-10-16T00:04:00;14.60;87.50
69382;DHT22;56560;50.692;12.844;2022-10-16T00:06:27;14.60;87.20
69382;DHT22;56560;50.692;12.844;2022-10-16T00:08:53;14.60;87.40
69382;DHT22;56560;50.692;12.844;2022-10-16T00:11:20;14.60;87.40
69382;DHT22;56560;50.692;12.844;2022-10-16T00:13:48;14.60;87.60
69382;DHT22;56560;50.692;12.844;2022-10-16T00:16:15;14.60;87.60
69382;DHT22;56560;50.692;12.844;2022-10-16T00:18:41;14.60;87.70
69382;DHT22;56560;50.692;12.844;2022-10-16T00:21:21;14.60;87.60
69382;DHT22;56560;50.692;12.844;2022-10-16T00:24:02;14.60;87.70
69382;DHT22;56560;50.692;12.844;2022-10-16T00:26:30;14.70;87.50
69382;DHT22;56560;50.692;12.844;2022-10-16T00:28:56;14.80;87.30
69382;DHT22;56560;50.692;12.844;2022-10-16T00:31:22;14.90;86.80
69382;DHT22;56560;50.692;12.844;2022-10-16T00:33:49;14.90;86.60
69382;DHT22;56560;50.692;12.844;2022-10-16T00:36:17;14.90;86.30
69382;DHT22;56560;50.692;12.844;2022-10-16T00:38:44;15.00;86.20
69382;DHT22;56560;50.692;12.844;2022-10-16T00:41:14;15.10;86.10
69382;DHT22;56560;50.692;12.844;2022-10-16T00:43:50;15.20;85.80
69382;DHT22;56560;50.692;12.844;2022-10-16T00:51:37;15.30;85.60
69382;DHT22;56560;50.692;12.844;2022-10-16T00:54:09;15.40;85.60
69382;DHT22;56560;50.692;12.844;2022-10-16T00:56:35;15.40;85.70
69382;DHT22;56560;50.692;12.844;2022-10-16T00:59:03;15.30;85.90
69382;DHT22;56560;50.692;12.844;2022-10-16T01:01:30;15.30;86.10
69382;DHT22;56560;50.692;12.844;2022-10-16T01:03:56;15.30;86.00
69382;DHT22;56560;50.692;12.844;2022-10-16T01:06:24;15.30;85.90
69382;DHT22;56560;50.692;12.844;2022-10-16T01:09:09;15.30;86.00
69382;DHT22;56560;50.692;12.844;2022-10-16T01:14:50;15.40;85.60
69382;DHT22;56560;50.692;12.844;2022-10-16T01:26:16;15.60;84.70
69382;DHT22;56560;50.692;12.844;2022-10-16T01:28:44;15.60;84.50
69382;DHT22;56560;50.692;12.844;2022-10-16T01:31:14;15.60;84.60
69382;DHT22;56560;50.692;12.844;2022-10-16T01:33:47;15.60;84.50
69382;DHT22;56560;50.692;12.844;2022-10-16T01:36:18;15.60;84.40
69382;DHT22;56560;50.692;12.844;2022-10-16T01:38:48;15.60;84.40
69382;DHT22;56560;50.692;12.844;2022-10-16T01:41:21;15.60;84.30
69382;DHT22;56560;50.692;12.844;2022-10-16T01:43:56;15.50;84.60
69382;DHT22;56560;50.692;12.844;2022-10-16T01:46:24;15.40;85.00
69382;DHT22;56560;50.692;12.844;2022-10-16T01:48:51;15.30;85.30
69382;DHT22;56560;50.692;12.844;2022-10-16T01:51:18;15.20;85.50
69382;DHT22;56560;50.692;12.844;2022-10-16T01:53:49;15.10;85.80
69382;DHT22;56560;50.692;12.844;2022-10-16T01:56:17;15.10;85.90
69382;DHT22;56560;50.692;12.844;2022-10-16T01:58:49;15.10;85.80
69382;DHT22;56560;50.692;12.844;2022-10-16T02:01:19;15.10;85.80
69382;DHT22;56560;50.692;12.844;2022-10-16T02:03:48;15.00;86.00
69382;DHT22;56560;50.692;12.844;2022-10-16T02:06:15;14.90;86.20
69382;DHT22;56560;50.692;12.844;2022-10-16T02:08:41;14.90;86.30
69382;DHT22;56560;50.692;12.844;2022-10-16T02:11:10;14.80;86.70
69382;DHT22;56560;50.692;12.844;2022-10-16T02:13:41;14.80;86.80
69382;DHT22;56560;50.692;12.844;2022-10-16T02:16:11;14.80;86.60
69382;DHT22;56560;50.692;12.844;2022-10-16T02:18:37;14.90;86.30
69382;DHT22;56560;50.692;12.844;2022-10-16T02:21:23;15.00;85.80
69382;DHT22;56560;50.692;12.844;2022-10-16T02:26:32;15.10;85.30
69382;DHT22;56560;50.692;12.844;2022-10-16T02:29:05;15.20;84.80
69382;DHT22;56560;50.692;12.844;2022-10-16T02:31:35;15.30;84.70
69382;DHT22;56560;50.692;12.844;2022-10-16T02:34:04;15.30;84.50
69382;DHT22;56560;50.692;12.844;2022-10-16T02:36:31;15.30;84.50
69382;DHT22;56560;50.692;12.844;2022-10-16T02:38:58;15.30;84.60
69382;DHT22;56560;50.692;12.844;2022-10-16T02:41:26;15.20;84.80
69382;DHT22;56560;50.692;12.844;2022-10-16T02:43:51;15.20;84.90
69382;DHT22;56560;50.692;12.844;2022-10-16T02:46:17;15.20;85.00
69382;DHT22;56560;50.692;12.844;2022-10-16T02:48:43;15.20;85.20
69382;DHT22;56560;50.692;12.844;2022-10-16T02:51:09;15.10;85.30
69382;DHT22;56560;50.692;12.844;2022-10-16T02:53:35;15.10;85.60
69382;DHT22;56560;50.692;12.844;2022-10-16T02:56:01;15.10;85.60
69382;DHT22;56560;50.692;12.844;2022-10-16T02:58:27;15.00;85.90
69382;DHT22;56560;50.692;12.844;2022-10-16T03:00:52;15.00;86.20
69382;DHT22;56560;50.692;12.844;2022-10-16T03:03:18;14.90;86.50
69382;DHT22;56560;50.692;12.844;2022-10-16T03:05:44;14.90;86.70
69382;DHT22;56560;50.692;12.844;2022-10-16T03:08:11;14.80;86.70
69382;DHT22;56560;50.692;12.844;2022-10-16T03:10:37;14.90;86.80
69382;DHT22;56560;50.692;12.844;2022-10-16T03:13:03;14.90;86.80
69382;DHT22;56560;50.692;12.844;2022-10-16T03:15:28;14.90;86.70
69382;DHT22;56560;50.692;12.844;2022-10-16T03:17:56;15.00;86.50
69382;DHT22;56560;50.692;12.844;2022-10-16T03:20:22;15.00;86.50
69382;DHT22;56560;50.692;12.844;2022-10-16T03:22:48;15.00;86.50
69382;DHT22;56560;50.692;12.844;2022-10-16T03:25:13;15.00;86.40
69382;DHT22;56560;50.692;12.844;2022-10-16T03:27:39;15.00;86.30
69382;DHT22;56560;50.692;12.844;2022-10-16T03:30:05;15.00;86.30
69382;DHT22;56560;50.692;12.844;2022-10-16T03:32:31;15.00;86.40
69382;DHT22;56560;50.692;12.844;2022-10-16T03:34:56;15.00;86.40
69382;DHT22;56560;50.692;12.844;2022-10-16T03:37:22;15.00;86.40
69382;DHT22;56560;50.692;12.844;2022-10-16T03:39:48;14.90;86.30
69382;DHT22;56560;50.692;12.844;2022-10-16T03:42:13;15.00;86.20
69382;DHT22;56560;50.692;12.844;2022-10-16T03:44:39;15.10;85.90
69382;DHT22;56560;50.692;12.844;2022-10-16T03:47:05;15.10;86.00
69382;DHT22;56560;50.692;12.844;2022-10-16T03:49:30;15.10;86.20
69382;DHT22;56560;50.692;12.844;2022-10-16T03:51:56;15.10;86.70
69382;DHT22;56560;50.692;12.844;2022-10-16T03:54:21;15.00;87.00
69382;DHT22;56560;50.692;12.844;2022-10-16T03:56:47;15.00;87.00
69382;DHT22;56560;50.692;12.844;2022-10-16T03:59:13;15.10;86.90
69382;DHT22;56560;50.692;12.844;2022-10-16T04:01:39;15.00;87.70
69382;DHT22;56560;50.692;12.844;2022-10-16T04:04:04;14.90;88.30
69382;DHT22;56560;50.692;12.844;2022-10-16T04:06:30;14.80;89.10
69382;DHT22;56560;50.692;12.844;2022-10-16T04:08:56;14.80;89.40
69382;DHT22;56560;50.692;12.844;2022-10-16T04:11:21;14.70;90.10
69382;DHT22;56560;50.692;12.844;2022-10-16T04:13:47;14.60;90.80
69382;DHT22;56560;50.692;12.844;2022-10-16T04:16:13;14.50;91.20
69382;DHT22;56560;50.692;12.844;2022-10-16T04:18:38;14.50;91.20
69382;DHT22;56560;50.692;12.844;2022-10-16T04:21:05;14.50;91.20
69382;DHT22;56560;50.692;12.844;2022-10-16T04:23:31;14.40;91.70
69382;DHT22;56560;50.692;12.844;2022-10-16T04:25:57;14.40;92.00
69382;DHT22;56560;50.692;12.844;2022-10-16T04:28:23;14.30;92.50
69382;DHT22;56560;50.692;12.844;2022-10-16T04:30:49;14.30;92.50
69382;DHT22;56560;50.692;12.844;2022-10-16T04:33:14;14.30;92.70
69382;DHT22;56560;50.692;12.844;2022-10-16T04:35:40;14.30;92.50
69382;DHT22;56560;50.692;12.844;2022-10-16T04:38:05;14.30;92.80
69382;DHT22;56560;50.692;12.844;2022-10-16T04:40:31;14.30;92.80
69382;DHT22;56560;50.692;12.844;2022-10-16T04:42:58;14.20;92.80
69382;DHT22;56560;50.692;12.844;2022-10-16T04:45:24;14.20;92.90
69382;DHT22;56560;50.692;12.844;2022-10-16T04:47:50;14.20;92.90
69382;DHT22;56560;50.692;12.844;2022-10-16T04:50:16;14.10;92.90
69382;DHT22;56560;50.692;12.844;2022-10-16T04:52:41;14.10;93.00
69382;DHT22;56560;50.692;12.844;2022-10-16T04:55:07;14.10;93.00
69382;DHT22;56560;50.692;12.844;2022-10-16T04:57:33;14.10;92.80
69382;DHT22;56560;50.692;12.844;2022-10-16T04:59:59;14.10;92.70
69382;DHT22;56560;50.692;12.844;2022-10-16T05:02:24;14.10;92.70
69382;DHT22;56560;50.692;12.844;2022-10-16T05:04:51;14.10;92.40
69382;DHT22;56560;50.692;12.844;2022-10-16T05:07:16;14.20;92.20
69382;DHT22;56560;50.692;12.844;2022-10-16T05:09:42;14.20;92.00
69382;DHT22;56560;50.692;12.844;2022-10-16T05:12:07;14.20;91.60
69382;DHT22;56560;50.692;12.844;2022-10-16T05:14:33;14.20;91.40
69382;DHT22;56560;50.692;12.844;2022-10-16T05:17:00;14.20;91.50
69382;DHT22;56560;50.692;12.844;2022-10-16T05:19:25;14.20;91.80
69382;DHT22;56560;50.692;12.844;2022-10-16T05:21:51;14.10;91.80
69382;DHT22;56560;50.692;12.844;2022-10-16T05:24:17;14.10;91.90
69382;DHT22;56560;50.692;12.844;2022-10-16T05:26:43;14.00;92.10
69382;DHT22;56560;50.692;12.844;2022-10-16T05:29:09;14.00;91.90
69382;DHT22;56560;50.692;12.844;2022-10-16T05:31:34;14.00;92.00
69382;DHT22;56560;50.692;12.844;2022-10-16T05:34:01;14.00;92.10
69382;DHT22;56560;50.692;12.844;2022-10-16T05:36:27;14.10;91.50
69382;DHT22;56560;50.692;12.844;2022-10-16T05:38:53;14.20;90.80
69382;DHT22;56560;50.692;12.844;2022-10-16T05:41:19;14.30;90.70
69382;DHT22;56560;50.692;12.844;2022-10-16T05:43:47;14.30;90.40
69382;DHT22;56560;50.692;12.844;2022-10-16T05:46:13;14.40;90.20
69382;DHT22;56560;50.692;12.844;2022-10-16T05:48:39;14.50;89.70
69382;DHT22;56560;50.692;12.844;2022-10-16T05:51:10;14.60;89.40
69382;DHT22;56560;50.692;12.844;2022-10-16T05:53:37;14.60;89.40
69382;DHT22;56560;50.692;12.844;2022-10-16T05:56:04;14.70;89.40
69382;DHT22;56560;50.692;12.844;2022-10-16T05:58:35;14.70;89.40
69382;DHT22;56560;50.692;12.844;2022-10-16T06:01:12;14.70;89.60
69382;DHT22;56560;50.692;12.844;2022-10-16T06:03:39;14.70;89.60
69382;DHT22;56560;50.692;12.844;2022-10-16T06:06:13;14.70;89.50
69382;DHT22;56560;50.692;12.844;2022-10-16T06:08:40;14.70;89.60
69382;DHT22;56560;50.692;12.844;2022-10-16T06:11:15;14.60;89.90
69382;DHT22;56560;50.692;12.844;2022-10-16T06:13:41;14.60;89.80
69382;DHT22;56560;50.692;12.844;2022-10-16T06:16:08;14.60;90.00
69382;DHT22;56560;50.692;12.844;2022-10-16T06:18:34;14.60;89.70
69382;DHT22;56560;50.692;12.844;2022-10-16T06:21:10;14.70;89.60
69382;DHT22;56560;50.692;12.844;2022-10-16T06:23:36;14.70;89.50
69382;DHT22;56560;50.692;12.844;2022-10-16T06:26:17;14.80;89.20
69382;DHT22;56560;50.692;12.844;2022-10-16T06:28:43;14.80;89.10
69382;DHT22;56560;50.692;12.844;2022-10-16T06:31:10;14.80;89.10
69382;DHT22;56560;50.692;12.844;2022-10-16T06:33:36;14.80;89.20
69382;DHT22;56560;50.692;12.844;2022-10-16T06:36:06;14.70;89.20
69382;DHT22;56560;50.692;12.844;2022-10-16T06:38:33;14.70;89.40
69382;DHT22;56560;50.692;12.844;2022-10-16T06:40:59;14.60;89.70
69382;DHT22;56560;50.692;12.844;2022-10-16T06:43:25;14.70;89.80
69382;DHT22;56560;50.692;12.844;2022-10-16T06:45:55;14.70;89.60
69382;DHT22;56560;50.692;12.844;2022-10-16T06:48:22;14.80;89.20
69382;DHT22;56560;50.692;12.844;2022-10-16T06:51:01;14.90;89.00
69382;DHT22;56560;50.692;12.844;2022-10-16T06:53:31;15.10;88.50
69382;DHT22;56560;50.692;12.844;2022-10-16T06:55:57;15.20;87.90
69382;DHT22;56560;50.692;12.844;2022-10-16T06:58:23;15.30;87.80
69382;DHT22;56560;50.692;12.844;2022-10-16T07:00:52;15.40;87.40
69382;DHT22;56560;50.692;12.844;2022-10-16T07:03:20;15.50;87.20
69382;DHT22;56560;50.692;12.844;2022-10-16T07:05:45;15.60;87.10
69382;DHT22;56560;50.692;12.844;2022-10-16T07:08:11;15.60;87.20
69382;DHT22;56560;50.692;12.844;2022-10-16T07:10:37;15.70;86.70
69382;DHT22;56560;50.692;12.844;2022-10-16T07:13:03;15.80;86.40
69382;DHT22;56560;50.692;12.844;2022-10-16T07:15:28;15.80;86.60
69382;DHT22;56560;50.692;12.844;2022-10-16T07:17:54;15.90;86.40
69382;DHT22;56560;50.692;12.844;2022-10-16T07:20:20;15.90;86.50
69382;DHT22;56560;50.692;12.844;2022-10-16T07:22:46;16.00;86.20
69382;DHT22;56560;50.692;12.844;2022-10-16T07:25:11;16.00;86.00
69382;DHT22;56560;50.692;12.844;2022-10-16T07:27:37;16.20;85.50
69382;DHT22;56560;50.692;12.844;2022-10-16T07:30:04;16.30;85.10
69382;DHT22;56560;50.692;12.844;2022-10-16T07:32:31;16.40;84.60
69382;DHT22;56560;50.692;12.844;2022-10-16T07:34:57;16.50;84.10
69382;DHT22;56560;50.692;12.844;2022-10-16T07:37:22;16.50;83.70
69382;DHT22;56560;50.692;12.844;2022-10-16T07:39:48;16.60;83.30
69382;DHT22;56560;50.692;12.844;2022-10-16T07:42:14;16.70;83.70
69382;DHT22;56560;50.692;12.844;2022-10-16T07:44:40;16.80;82.60
69382;DHT22;56560;50.692;12.844;2022-10-16T07:47:06;16.90;82.40
69382;DHT22;56560;50.692;12.844;2022-10-16T07:49:32;17.00;82.20
69382;DHT22;56560;50.692;12.844;2022-10-16T07:51:57;17.10;81.70
69382;DHT22;56560;50.692;12.844;2022-10-16T07:54:23;17.20;81.30
69382;DHT22;56560;50.692;12.844;2022-10-16T07:56:48;17.20;80.80
69382;DHT22;56560;50.692;12.844;2022-10-16T07:59:14;17.10;81.00
69382;DHT22;56560;50.692;12.844;2022-10-16T08:01:40;17.20;80.80
69382;DHT22;56560;50.692;12.844;2022-10-16T08:04:08;17.30;81.00
69382;DHT22;56560;50.692;12.844;2022-10-16T08:06:39;17.40;80.40
69382;DHT22;56560;50.692;12.844;2022-10-16T08:09:07;17.50;80.10
69382;DHT22;56560;50.692;12.844;2022-10-16T08:11:36;17.50;79.40
69382;DHT22;56560;50.692;12.844;2022-10-16T08:14:02;17.70;79.00
69382;DHT22;56560;50.692;12.844;2022-10-16T08:16:27;17.70;78.40
69382;DHT22;56560;50.692;12.844;2022-10-16T08:18:53;17.80;78.50
69382;DHT22;56560;50.692;12.844;2022-10-16T08:21:21;17.90;78.70
69382;DHT22;56560;50.692;12.844;2022-10-16T08:23:48;18.10;77.80
69382;DHT22;56560;50.692;12.844;2022-10-16T08:26:14;18.30;77.50
69382;DHT22;56560;50.692;12.844;2022-10-16T08:28:40;18.30;76.50
69382;DHT22;56560;50.692;12.844;2022-10-16T08:31:15;18.50;76.30
69382;DHT22;56560;50.692;12.844;2022-10-16T08:33:43;18.50;75.90
69382;DHT22;56560;50.692;12.844;2022-10-16T08:36:10;18.50;75.30
69382;DHT22;56560;50.692;12.844;2022-10-16T08:38:36;18.60;74.80
69382;DHT22;56560;50.692;12.844;2022-10-16T08:41:26;18.70;74.20
69382;DHT22;56560;50.692;12.844;2022-10-16T08:49:23;18.60;73.80
69382;DHT22;56560;50.692;12.844;2022-10-16T08:51:50;18.70;74.10
69382;DHT22;56560;50.692;12.844;2022-10-16T08:54:36;18.70;73.80
69382;DHT22;56560;50.692;12.844;2022-10-16T08:57:25;18.80;73.60
69382;DHT22;56560;50.692;12.844;2022-10-16T08:59:53;18.90;73.30
69382;DHT22;56560;50.692;12.844;2022-10-16T09:02:58;18.90;73.50
69382;DHT22;56560;50.692;12.844;2022-10-16T09:14:00;19.50;70.60
69382;DHT22;56560;50.692;12.844;2022-10-16T09:16:35;19.40;70.90
69382;DHT22;56560;50.692;12.844;2022-10-16T09:19:14;19.40;71.50
69382;DHT22;56560;50.692;12.844;2022-10-16T09:21:45;19.30;71.20
69382;DHT22;56560;50.692;12.844;2022-10-16T09:24:20;19.40;71.30
69382;DHT22;56560;50.692;12.844;2022-10-16T09:26:47;19.30;71.50
69382;DHT22;56560;50.692;12.844;2022-10-16T09:29:14;19.30;71.30
69382;DHT22;56560;50.692;12.844;2022-10-16T09:31:42;19.30;71.50
69382;DHT22;56560;50.692;12.844;2022-10-16T09:34:27;19.20;71.60
69382;DHT22;56560;50.692;12.844;2022-10-16T09:36:56;19.10;71.50
69382;DHT22;56560;50.692;12.844;2022-10-16T09:39:22;19.20;72.30
69382;DHT22;56560;50.692;12.844;2022-10-16T09:41:48;19.20;72.00
69382;DHT22;56560;50.692;12.844;2022-10-16T09:44:29;19.10;71.50
69382;DHT22;56560;50.692;12.844;2022-10-16T09:47:14;19.10;72.20
69382;DHT22;56560;50.692;12.844;2022-10-16T09:49:51;19.20;71.90
69382;DHT22;56560;50.692;12.844;2022-10-16T09:52:18;19.30;71.50
69382;DHT22;56560;50.692;12.844;2022-10-16T09:54:55;19.50;71.20
69382;DHT22;56560;50.692;12.844;2022-10-16T09:57:21;19.70;70.30
69382;DHT22;56560;50.692;12.844;2022-10-16T09:59:52;19.60;69.90
69382;DHT22;56560;50.692;12.844;2022-10-16T10:02:34;19.60;70.30
69382;DHT22;56560;50.692;12.844;2022-10-16T10:05:00;19.50;70.60
69382;DHT22;56560;50.692;12.844;2022-10-16T10:07:32;19.50;70.60
69382;DHT22;56560;50.692;12.844;2022-10-16T10:10:00;19.60;70.60
69382;DHT22;56560;50.692;12.844;2022-10-16T10:12:31;19.60;70.20
69382;DHT22;56560;50.692;12.844;2022-10-16T10:15:10;19.50;70.40
69382;DHT22;56560;50.692;12.844;2022-10-16T10:17:48;19.60;70.20
69382;DHT22;56560;50.692;12.844;2022-10-16T10:20:31;19.90;69.60
69382;DHT22;56560;50.692;12.844;2022-10-16T10:23:00;20.20;68.30
69382;DHT22;56560;50.692;12.844;2022-10-16T10:25:49;20.40;67.90
69382;DHT22;56560;50.692;12.844;2022-10-16T10:34:35;20.70;66.70
69382;DHT22;56560;50.692;12.844;2022-10-16T10:37:28;20.70;66.50
69382;DHT22;56560;50.692;12.844;2022-10-16T10:40:30;20.70;66.30
69382;DHT22;56560;50.692;12.844;2022-10-16T10:45:42;20.60;66.70
69382;DHT22;56560;50.692;12.844;2022-10-16T10:48:27;20.60;66.90
69382;DHT22;56560;50.692;12.844;2022-10-16T10:56:49;21.20;65.00
69382;DHT22;56560;50.692;12.844;2022-10-16T11:03:11;21.40;65.00
69382;DHT22;56560;50.692;12.844;2022-10-16T11:05:28;21.50;64.30
69382;DHT22;56560;50.692;12.844;2022-10-16T11:08:04;21.70;64.10
69382;DHT22;56560;50.692;12.844;2022-10-16T11:10:44;21.80;64.10
69382;DHT22;56560;50.692;12.844;2022-10-16T11:13:33;22.20;62.60
69382;DHT22;56560;50.692;12.844;2022-10-16T11:16:14;22.30;62.90
69382;DHT22;56560;50.692;12.844;2022-10-16T11:18:49;22.40;61.80
69382;DHT22;56560;50.692;12.844;2022-10-16T11:21:19;22.40;61.10
69382;DHT22;56560;50.692;12.844;2022-10-16T11:23:57;23.10;59.40
69382;DHT22;56560;50.692;12.844;2022-10-16T11:26:33;24.20;57.00
69382;DHT22;56560;50.692;12.844;2022-10-16T11:29:02;25.40;54.40
69382;DHT22;56560;50.692;12.844;2022-10-16T11:31:50;26.00;52.40
69382;DHT22;56560;50.692;12.844;2022-10-16T11:37:23;26.80;50.10
69382;DHT22;56560;50.692;12.844;2022-10-16T11:39:40;26.50;51.20
69382;DHT22;56560;50.692;12.844;2022-10-16T11:44:57;25.60;53.20
69382;DHT22;56560;50.692;12.844;2022-10-16T11:50:18;25.00;54.60
69382;DHT22;56560;50.692;12.844;2022-10-16T11:55:41;24.50;55.00
69382;DHT22;56560;50.692;12.844;2022-10-16T12:03:50;24.40;56.70
69382;DHT22;56560;50.692;12.844;2022-10-16T12:06:33;24.60;56.50
69382;DHT22;56560;50.692;12.844;2022-10-16T12:09:01;24.40;56.40
69382;DHT22;56560;50.692;12.844;2022-10-16T12:19:21;24.00;56.10
69382;DHT22;56560;50.692;12.844;2022-10-16T12:21:48;24.40;56.10
69382;DHT22;56560;50.692;12.844;2022-10-16T12:24:32;25.50;53.40
69382;DHT22;56560;50.692;12.844;2022-10-16T12:26:59;26.10;50.70
69382;DHT22;56560;50.692;12.844;2022-10-16T12:29:40;26.50;50.00
69382;DHT22;56560;50.692;12.844;2022-10-16T12:32:33;26.40;49.70
69382;DHT22;56560;50.692;12.844;2022-10-16T12:35:01;25.30;51.90
69382;DHT22;56560;50.692;12.844;2022-10-16T12:37:28;24.30;53.90
69382;DHT22;56560;50.692;12.844;2022-10-16T12:39:55;24.60;55.00
69382;DHT22;56560;50.692;12.844;2022-10-16T12:44:55;25.70;51.70
69382;DHT22;56560;50.692;12.844;2022-10-16T12:47:34;25.70;51.70
69382;DHT22;56560;50.692;12.844;2022-10-16T12:50:01;24.90;52.60
69382;DHT22;56560;50.692;12.844;2022-10-16T12:52:34;24.60;54.60
69382;DHT22;56560;50.692;12.844;2022-10-16T12:55:01;24.20;55.30
69382;DHT22;56560;50.692;12.844;2022-10-16T13:03:22;24.00;56.50
69382;DHT22;56560;50.692;12.844;2022-10-16T13:06:04;24.30;55.80
69382;DHT22;56560;50.692;12.844;2022-10-16T13:28:37;23.20;60.10
69382;DHT22;56560;50.692;12.844;2022-10-16T13:31:04;23.30;60.60
69382;DHT22;56560;50.692;12.844;2022-10-16T13:33:46;23.30;61.80
69382;DHT22;56560;50.692;12.844;2022-10-16T13:36:33;23.30;61.00
69382;DHT22;56560;50.692;12.844;2022-10-16T13:39:21;23.40;60.70
69382;DHT22;56560;50.692;12.844;2022-10-16T13:42:10;23.70;57.70
69382;DHT22;56560;50.692;12.844;2022-10-16T13:44:43;23.40;58.40
69382;DHT22;56560;50.692;12.844;2022-10-16T13:47:22;23.20;59.20
69382;DHT22;56560;50.692;12.844;2022-10-16T13:50:12;23.10;59.00
69382;DHT22;56560;50.692;12.844;2022-10-16T13:52:39;22.90;60.20
69382;DHT22;56560;50.692;12.844;2022-10-16T13:55:11;22.60;60.70
69382;DHT22;56560;50.692;12.844;2022-10-16T13:57:37;22.60;61.20
69382;DHT22;56560;50.692;12.844;2022-10-16T14:00:05;22.60;60.70
69382;DHT22;56560;50.692;12.844;2022-10-16T14:02:42;22.60;61.20
69382;DHT22;56560;50.692;12.844;2022-10-16T14:05:09;22.60;61.40
69382;DHT22;56560;50.692;12.844;2022-10-16T14:07:36;22.70;61.50
69382;DHT22;56560;50.692;12.844;2022-10-16T14:10:18;22.60;61.60
69382;DHT22;56560;50.692;12.844;2022-10-16T14:12:44;22.60;61.40
69382;DHT22;56560;50.692;12.844;2022-10-16T14:15:17;22.80;61.80
69382;DHT22;56560;50.692;12.844;2022-10-16T14:17:46;23.50;59.20
69382;DHT22;56560;50.692;12.844;2022-10-16T14:20:15;23.80;58.60
69382;DHT22;56560;50.692;12.844;2022-10-16T14:22:42;23.40;58.60
69382;DHT22;56560;50.692;12.844;2022-10-16T14:28:18;22.40;61.80
69382;DHT22;56560;50.692;12.844;2022-10-16T14:30:55;23.10;60.90
69382;DHT22;56560;50.692;12.844;2022-10-16T14:33:24;24.90;55.90
69382;DHT22;56560;50.692;12.844;2022-10-16T14:38:34;27.90;48.90
69382;DHT22;56560;50.692;12.844;2022-10-16T14:41:01;28.00;48.60
69382;DHT22;56560;50.692;12.844;2022-10-16T14:43:37;27.40;49.40
69382;DHT22;56560;50.692;12.844;2022-10-16T14:46:12;26.40;50.70
69382;DHT22;56560;50.692;12.844;2022-10-16T14:49:03;25.30;53.40
69382;DHT22;56560;50.692;12.844;2022-10-16T14:51:30;25.20;53.40
69382;DHT22;56560;50.692;12.844;2022-10-16T14:53:56;25.40;53.30
69382;DHT22;56560;50.692;12.844;2022-10-16T14:56:24;24.90;54.20
69382;DHT22;56560;50.692;12.844;2022-10-16T14:58:51;24.00;56.00
69382;DHT22;56560;50.692;12.844;2022-10-16T15:01:18;23.10;58.70
69382;DHT22;56560;50.692;12.844;2022-10-16T15:03:44;22.30;60.90
69382;DHT22;56560;50.692;12.844;2022-10-16T15:06:14;21.70;63.50
69382;DHT22;56560;50.692;12.844;2022-10-16T15:08:40;21.30;64.60
69382;DHT22;56560;50.692;12.844;2022-10-16T15:11:13;21.00;65.50
69382;DHT22;56560;50.692;12.844;2022-10-16T15:13:39;20.70;67.00
69382;DHT22;56560;50.692;12.844;2022-10-16T15:16:07;20.40;68.10
69382;DHT22;56560;50.692;12.844;2022-10-16T15:18:33;20.20;69.00
69382;DHT22;56560;50.692;12.844;2022-10-16T15:20:59;20.00;69.60
69382;DHT22;56560;50.692;12.844;2022-10-16T15:23:25;19.90;70.40
69382;DHT22;56560;50.692;12.844;2022-10-16T15:25:52;19.80;71.20
69382;DHT22;56560;50.692;12.844;2022-10-16T15:28:19;19.60;71.60
69382;DHT22;56560;50.692;12.844;2022-10-16T15:30:45;19.50;71.90
69382;DHT22;56560;50.692;12.844;2022-10-16T15:33:15;19.40;72.30
69382;DHT22;56560;50.692;12.844;2022-10-16T15:35:41;19.30;72.30
69382;DHT22;56560;50.692;12.844;2022-10-16T15:38:11;19.30;72.90
69382;DHT22;56560;50.692;12.844;2022-10-16T15:40:38;19.20;73.00
69382;DHT22;56560;50.692;12.844;2022-10-16T15:43:03;19.10;73.20
69382;DHT22;56560;50.692;12.844;2022-10-16T15:45:29;19.10;73.10
69382;DHT22;56560;50.692;12.844;2022-10-16T15:47:55;19.00;73.00
69382;DHT22;56560;50.692;12.844;2022-10-16T15:50:20;18.90;73.40
69382;DHT22;56560;50.692;12.844;2022-10-16T15:52:46;18.80;73.60
69382;DHT22;56560;50.692;12.844;2022-10-16T15:55:13;18.70;74.10
69382;DHT22;56560;50.692;12.844;2022-10-16T15:57:39;18.60;74.60
69382;DHT22;56560;50.692;12.844;2022-10-16T16:00:09;18.40;75.30
69382;DHT22;56560;50.692;12.844;2022-10-16T16:02:35;18.20;76.20
69382;DHT22;56560;50.692;12.844;2022-10-16T16:05:00;18.00;76.70
69382;DHT22;56560;50.692;12.844;2022-10-16T16:07:27;17.90;77.10
69382;DHT22;56560;50.692;12.844;2022-10-16T16:09:53;17.70;77.30
69382;DHT22;56560;50.692;12.844;2022-10-16T16:12:18;17.50;78.40
69382;DHT22;56560;50.692;12.844;2022-10-16T16:14:44;17.40;79.00
69382;DHT22;56560;50.692;12.844;2022-10-16T16:17:11;17.20;79.60
69382;DHT22;56560;50.692;12.844;2022-10-16T16:19:37;17.00;79.90
69382;DHT22;56560;50.692;12.844;2022-10-16T16:22:02;16.80;80.90
69382;DHT22;56560;50.692;12.844;2022-10-16T16:24:28;16.60;81.10
69382;DHT22;56560;50.692;12.844;2022-10-16T16:26:54;16.50;82.30
69382;DHT22;56560;50.692;12.844;2022-10-16T16:29:19;16.40;82.90
69382;DHT22;56560;50.692;12.844;2022-10-16T16:31:45;16.20;83.10
69382;DHT22;56560;50.692;12.844;2022-10-16T16:34:12;16.10;83.10
69382;DHT22;56560;50.692;12.844;2022-10-16T16:36:38;16.00;83.20
69382;DHT22;56560;50.692;12.844;2022-10-16T16:39:05;15.90;83.30
69382;DHT22;56560;50.692;12.844;2022-10-16T16:41:31;15.80;84.00
69382;DHT22;56560;50.692;12.844;2022-10-16T16:44:03;15.60;84.20
69382;DHT22;56560;50.692;12.844;2022-10-16T16:46:31;15.50;84.50
69382;DHT22;56560;50.692;12.844;2022-10-16T16:48:58;15.40;85.00
69382;DHT22;56560;50.692;12.844;2022-10-16T16:51:24;15.30;85.50
69382;DHT22;56560;50.692;12.844;2022-10-16T16:53:51;15.20;85.90
69382;DHT22;56560;50.692;12.844;2022-10-16T16:56:18;15.10;86.70
69382;DHT22;56560;50.692;12.844;2022-10-16T16:58:48;15.00;87.00
69382;DHT22;56560;50.692;12.844;2022-10-16T17:01:14;14.90;86.90
69382;DHT22;56560;50.692;12.844;2022-10-16T17:03:42;14.80;87.60
69382;DHT22;56560;50.692;12.844;2022-10-16T17:06:12;14.80;87.10
69382;DHT22;56560;50.692;12.844;2022-10-16T17:08:39;14.70;86.80
69382;DHT22;56560;50.692;12.844;2022-10-16T17:11:11;14.70;86.50
69382;DHT22;56560;50.692;12.844;2022-10-16T17:13:40;14.60;86.70
69382;DHT22;56560;50.692;12.844;2022-10-16T17:16:06;14.50;87.30
69382;DHT22;56560;50.692;12.844;2022-10-16T17:18:32;14.40;87.50
69382;DHT22;56560;50.692;12.844;2022-10-16T17:20:59;14.40;87.70